sensor_id;sensor_type;location;lat;lon;timestamp;temperature;humidity
66610;DHT22;53468;48.276;14.416;2022-10-01T06:54:11;12.70;99.90
66610;DHT22;53468;48.276;14.416;2022-10-01T07:06:27;13.00;99.90
66610;DHT22;53468;48.276;14.416;2022-10-01T07:12:38;13.30;99.90
66610;DHT22;53468;48.276;14.416;2022-10-01T07:18:12;13.40;99.90
66610;DHT22;53468;48.276;14.416;2022-10-01T07:23:47;13.40;99.90
66610;DHT22;53468;48.276;14.416;2022-10-01T07:29:24;13.40;99.90
66610;DHT22;53468;48.276;14.416;2022-10-01T07:34:57;13.30;99.90
66610;DHT22;53468;48.276;14.416;2022-10-01T07:40:30;13.20;99.90
66610;DHT22;53468;48.276;14.416;2022-10-01T07:46:06;13.10;99.90
66610;DHT22;53468;48.276;14.416;2022-10-01T07:51:38;13.10;99.90
66610;DHT22;53468;48.276;14.416;2022-10-01T07:57:13;13.10;99.90
66610;DHT22;53468;48.276;14.416;2022-10-01T08:03:18;13.00;99.90
66610;DHT22;53468;48.276;14.416;2022-10-01T08:08:50;13.10;99.90
66610;DHT22;53468;48.276;14.416;2022-10-01T08:14:22;13.30;99.90
66610;DHT22;53468;48.276;14.416;2022-10-01T08:19:57;13.60;99.90
66610;DHT22;53468;48.276;14.416;2022-10-01T08:25:29;13.90;99.90
66610;DHT22;53468;48.276;14.416;2022-10-01T08:31:04;14.60;99.90
66610;DHT22;53468;48.276;14.416;2022-10-01T08:36:40;15.20;99.90
66610;DHT22;53468;48.276;14.416;2022-10-01T08:42:18;16.10;99.90
66610;DHT22;53468;48.276;14.416;2022-10-01T08:47:58;16.40;99.90
66610;DHT22;53468;48.276;14.416;2022-10-01T08:53:36;16.80;99.90
66610;DHT22;53468;48.276;14.416;2022-10-01T08:59:16;17.10;99.90
66610;DHT22;53468;48.276;14.416;2022-10-01T09:04:53;17.60;99.90
66610;DHT22;53468;48.276;14.416;2022-10-01T09:10:41;17.30;99.90
66610;DHT22;53468;48.276;14.416;2022-10-01T09:16:20;17.10;99.90
66610;DHT22;53468;48.276;14.416;2022-10-01T09:21:58;17.10;99.90
66610;DHT22;53468;48.276;14.416;2022-10-01T09:27:36;17.00;99.90
66610;DHT22;53468;48.276;14.416;2022-10-01T09:33:13;16.80;99.90
66610;DHT22;53468;48.276;14.416;2022-10-01T09:38:50;16.70;99.90
66610;DHT22;53468;48.276;14.416;2022-10-01T09:44:26;16.80;99.90
66610;DHT22;53468;48.276;14.416;2022-10-01T09:49:59;17.10;99.90
66610;DHT22;53468;48.276;14.416;2022-10-01T09:55:36;17.10;99.90
66610;DHT22;53468;48.276;14.416;2022-10-01T10:01:21;17.10;99.90
66610;DHT22;53468;48.276;14.416;2022-10-01T10:06:59;17.00;99.90
66610;DHT22;53468;48.276;14.416;2022-10-01T10:12:32;17.10;99.90
66610;DHT22;53468;48.276;14.416;2022-10-01T10:18:07;16.90;99.90
66610;DHT22;53468;48.276;14.416;2022-10-01T10:23:47;16.90;99.90
66610;DHT22;53468;48.276;14.416;2022-10-01T10:29:25;17.10;99.90
66610;DHT22;53468;48.276;14.416;2022-10-01T10:35:01;16.90;99.90
66610;DHT22;53468;48.276;14.416;2022-10-01T10:40:40;16.90;99.90
66610;DHT22;53468;48.276;14.416;2022-10-01T10:46:20;17.00;99.90
66610;DHT22;53468;48.276;14.416;2022-10-01T10:51:55;17.30;99.90
66610;DHT22;53468;48.276;14.416;2022-10-01T10:57:29;17.20;99.90
66610;DHT22;53468;48.276;14.416;2022-10-01T11:03:04;17.10;99.90
66610;DHT22;53468;48.276;14.416;2022-10-01T11:08:39;16.90;99.90
66610;DHT22;53468;48.276;14.416;2022-10-01T11:14:31;16.80;99.90
66610;DHT22;53468;48.276;14.416;2022-10-01T11:20:20;16.70;99.90
66610;DHT22;53468;48.276;14.416;2022-10-01T11:26:08;16.70;99.90
66610;DHT22;53468;48.276;14.416;2022-10-01T11:31:49;16.60;99.90
66610;DHT22;53468;48.276;14.416;2022-10-01T11:37:43;16.60;99.90
66610;DHT22;53468;48.276;14.416;2022-10-01T11:43:21;16.50;99.90
66610;DHT22;53468;48.276;14.416;2022-10-01T11:48:58;16.50;99.90
66610;DHT22;53468;48.276;14.416;2022-10-01T11:54:35;16.50;99.90
66610;DHT22;53468;48.276;14.416;2022-10-01T12:00:13;16.60;99.90
66610;DHT22;53468;48.276;14.416;2022-10-01T12:05:47;16.60;99.90
66610;DHT22;53468;48.276;14.416;2022-10-01T12:11:24;16.50;99.90
66610;DHT22;53468;48.276;14.416;2022-10-01T12:17:08;16.60;99.90
66610;DHT22;53468;48.276;14.416;2022-10-01T12:22:43;16.70;99.90
66610;DHT22;53468;48.276;14.416;2022-10-01T12:28:20;16.70;99.90
66610;DHT22;53468;48.276;14.416;2022-10-01T12:34:07;16.60;99.90
66610;DHT22;53468;48.276;14.416;2022-10-01T12:40:01;16.70;99.90
66610;DHT22;53468;48.276;14.416;2022-10-01T12:45:59;16.70;99.90
66610;DHT22;53468;48.276;14.416;2022-10-01T12:51:43;16.60;99.90
66610;DHT22;53468;48.276;14.416;2022-10-01T12:57:29;16.60;99.90
66610;DHT22;53468;48.276;14.416;2022-10-01T13:03:27;16.60;99.90
66610;DHT22;53468;48.276;14.416;2022-10-01T13:09:17;16.10;99.90
66610;DHT22;53468;48.276;14.416;2022-10-01T13:14:54;16.20;99.90
66610;DHT22;53468;48.276;14.416;2022-10-01T13:20:35;16.20;99.90
66610;DHT22;53468;48.276;14.416;2022-10-01T13:26:14;16.30;99.90
66610;DHT22;53468;48.276;14.416;2022-10-01T13:31:56;16.40;99.90
66610;DHT22;53468;48.276;14.416;2022-10-01T13:37:47;16.20;99.90
66610;DHT22;53468;48.276;14.416;2022-10-01T13:43:34;15.90;99.90
66610;DHT22;53468;48.276;14.416;2022-10-01T13:49:20;15.70;99.90
66610;DHT22;53468;48.276;14.416;2022-10-01T13:54:55;15.80;99.90
66610;DHT22;53468;48.276;14.416;2022-10-01T14:00:34;15.40;99.90
66610;DHT22;53468;48.276;14.416;2022-10-01T14:06:37;15.10;99.90
66610;DHT22;53468;48.276;14.416;2022-10-01T14:12:16;14.90;99.90
66610;DHT22;53468;48.276;14.416;2022-10-01T14:24:45;14.50;99.90
66610;DHT22;53468;48.276;14.416;2022-10-01T14:30:42;14.60;99.90
66610;DHT22;53468;48.276;14.416;2022-10-01T14:36:23;14.60;99.90
66610;DHT22;53468;48.276;14.416;2022-10-01T14:48:34;14.50;99.90
66610;DHT22;53468;48.276;14.416;2022-10-01T14:54:09;14.30;99.90
66610;DHT22;53468;48.276;14.416;2022-10-01T14:59:46;14.20;99.90
66610;DHT22;53468;48.276;14.416;2022-10-01T15:05:25;14.00;99.90
66610;DHT22;53468;48.276;14.416;2022-10-01T15:11:02;13.90;99.90
66610;DHT22;53468;48.276;14.416;2022-10-01T15:16:36;13.90;99.90
66610;DHT22;53468;48.276;14.416;2022-10-01T15:22:13;13.80;99.90
66610;DHT22;53468;48.276;14.416;2022-10-01T15:27:47;13.70;99.90
66610;DHT22;53468;48.276;14.416;2022-10-01T15:33:24;13.60;99.90
66610;DHT22;53468;48.276;14.416;2022-10-01T15:39:13;13.50;99.90
66610;DHT22;53468;48.276;14.416;2022-10-01T15:45:23;13.50;99.90
66610;DHT22;53468;48.276;14.416;2022-10-01T15:50:59;13.50;99.90
66610;DHT22;53468;48.276;14.416;2022-10-01T15:56:46;13.60;99.90
66610;DHT22;53468;48.276;14.416;2022-10-01T16:02:19;13.50;99.90
66610;DHT22;53468;48.276;14.416;2022-10-01T16:07:56;13.40;99.90
66610;DHT22;53468;48.276;14.416;2022-10-01T16:13:50;13.50;99.90
66610;DHT22;53468;48.276;14.416;2022-10-01T16:19:37;13.50;99.90
66610;DHT22;53468;48.276;14.416;2022-10-01T16:25:32;13.50;99.90
66610;DHT22;53468;48.276;14.416;2022-10-01T16:31:34;13.40;99.90
66610;DHT22;53468;48.276;14.416;2022-10-01T16:37:15;13.30;99.90
66610;DHT22;53468;48.276;14.416;2022-10-01T16:42:49;13.30;99.90
66610;DHT22;53468;48.276;14.416;2022-10-01T18:05:21;13.20;99.90
66610;DHT22;53468;48.276;14.416;2022-10-01T18:11:02;13.20;99.90
66610;DHT22;53468;48.276;14.416;2022-10-01T18:16:35;13.20;99.90
66610;DHT22;53468;48.276;14.416;2022-10-01T18:22:10;13.20;99.90
66610;DHT22;53468;48.276;14.416;2022-10-01T18:27:52;13.20;99.90
66610;DHT22;53468;48.276;14.416;2022-10-01T18:33:55;13.20;99.90
66610;DHT22;53468;48.276;14.416;2022-10-01T18:39:45;13.20;99.90
66610;DHT22;53468;48.276;14.416;2022-10-01T18:45:23;13.20;99.90
66610;DHT22;53468;48.276;14.416;2022-10-01T18:51:07;13.20;99.90
66610;DHT22;53468;48.276;14.416;2022-10-01T18:56:52;13.30;99.90
66610;DHT22;53468;48.276;14.416;2022-10-01T19:02:40;13.30;99.90
66610;DHT22;53468;48.276;14.416;2022-10-01T19:08:45;13.30;99.90
66610;DHT22;53468;48.276;14.416;2022-10-01T19:20:43;13.30;99.90
66610;DHT22;53468;48.276;14.416;2022-10-01T19:26:25;13.30;99.90
66610;DHT22;53468;48.276;14.416;2022-10-01T19:32:08;13.30;99.90
66610;DHT22;53468;48.276;14.416;2022-10-01T19:37:48;13.30;99.90
66610;DHT22;53468;48.276;14.416;2022-10-01T19:43:28;13.30;99.90
66610;DHT22;53468;48.276;14.416;2022-10-01T19:49:12;13.30;99.90
66610;DHT22;53468;48.276;14.416;2022-10-01T19:54:48;13.40;99.90
66610;DHT22;53468;48.276;14.416;2022-10-01T20:00:24;13.40;99.90
66610;DHT22;53468;48.276;14.416;2022-10-01T20:06:01;13.30;99.90
66610;DHT22;53468;48.276;14.416;2022-10-01T20:11:42;13.40;99.90
66610;DHT22;53468;48.276;14.416;2022-10-01T20:17:21;13.40;99.90
66610;DHT22;53468;48.276;14.416;2022-10-01T20:23:08;13.50;99.90
66610;DHT22;53468;48.276;14.416;2022-10-01T20:28:56;13.50;99.90
66610;DHT22;53468;48.276;14.416;2022-10-01T20:34:36;13.50;99.90
66610;DHT22;53468;48.276;14.416;2022-10-01T20:40:33;13.50;99.90
66610;DHT22;53468;48.276;14.416;2022-10-01T20:46:26;13.50;99.90
66610;DHT22;53468;48.276;14.416;2022-10-01T20:52:09;13.50;99.90
66610;DHT22;53468;48.276;14.416;2022-10-01T20:58:06;13.40;99.90
66610;DHT22;53468;48.276;14.416;2022-10-01T21:04:12;13.50;99.90
66610;DHT22;53468;48.276;14.416;2022-10-01T21:09:56;13.40;99.90
66610;DHT22;53468;48.276;14.416;2022-10-01T21:47:37;13.20;99.90
66610;DHT22;53468;48.276;14.416;2022-10-01T21:53:51;13.20;99.90
66610;DHT22;53468;48.276;14.416;2022-10-01T21:59:58;13.20;99.90
66610;DHT22;53468;48.276;14.416;2022-10-01T22:13:29;13.10;99.90
66610;DHT22;53468;48.276;14.416;2022-10-01T22:19:57;13.10;99.90
66610;DHT22;53468;48.276;14.416;2022-10-01T22:26:22;13.00;99.90
